sensor_id;sensor_type;location;lat;lon;timestamp;temperature;humidity
75899;DHT22;64576;50.460;4.866;2023-02-08T00:00:21;-2.29;92.77
75899;DHT22;64576;50.460;4.866;2023-02-08T00:02:47;-2.10;90.49
75899;DHT22;64576;50.460;4.866;2023-02-08T00:05:12;-2.04;89.64
75899;DHT22;64576;50.460;4.866;2023-02-08T00:07:37;-1.94;89.67
75899;DHT22;64576;50.460;4.866;2023-02-08T00:10:06;-2.04;89.32
75899;DHT22;64576;50.460;4.866;2023-02-08T00:12:33;-2.06;88.85
75899;DHT22;64576;50.460;4.866;2023-02-08T00:14:59;-2.07;87.34
75899;DHT22;64576;50.460;4.866;2023-02-08T00:17:24;-2.09;87.18
75899;DHT22;64576;50.460;4.866;2023-02-08T00:19:51;-1.92;86.04
75899;DHT22;64576;50.460;4.866;2023-02-08T00:22:16;-1.89;84.75
75899;DHT22;64576;50.460;4.866;2023-02-08T00:24:41;-1.86;84.96
75899;DHT22;64576;50.460;4.866;2023-02-08T00:27:07;-1.82;83.90
75899;DHT22;64576;50.460;4.866;2023-02-08T00:29:32;-1.86;84.17
75899;DHT22;64576;50.460;4.866;2023-02-08T00:31:58;-1.83;83.45
75899;DHT22;64576;50.460;4.866;2023-02-08T00:34:29;-1.82;83.35
75899;DHT22;64576;50.460;4.866;2023-02-08T00:36:55;-1.89;83.10
75899;DHT22;64576;50.460;4.866;2023-02-08T00:39:20;-1.89;83.90
75899;DHT22;64576;50.460;4.866;2023-02-08T00:41:46;-2.04;85.30
75899;DHT22;64576;50.460;4.866;2023-02-08T00:44:11;-2.15;86.72
75899;DHT22;64576;50.460;4.866;2023-02-08T00:46:37;-2.36;86.77
75899;DHT22;64576;50.460;4.866;2023-02-08T00:49:02;-2.45;88.00
75899;DHT22;64576;50.460;4.866;2023-02-08T00:51:28;-2.51;88.71
75899;DHT22;64576;50.460;4.866;2023-02-08T00:53:53;-2.58;89.00
75899;DHT22;64576;50.460;4.866;2023-02-08T00:56:18;-2.58;87.58
75899;DHT22;64576;50.460;4.866;2023-02-08T00:58:44;-2.52;87.14
75899;DHT22;64576;50.460;4.866;2023-02-08T01:01:09;-2.52;86.48
75899;DHT22;64576;50.460;4.866;2023-02-08T01:03:37;-2.51;85.80
75899;DHT22;64576;50.460;4.866;2023-02-08T01:06:04;-2.55;86.58
75899;DHT22;64576;50.460;4.866;2023-02-08T01:08:30;-2.62;86.30
75899;DHT22;64576;50.460;4.866;2023-02-08T01:13:29;-2.64;85.89
75899;DHT22;64576;50.460;4.866;2023-02-08T01:15:54;-2.58;84.53
75899;DHT22;64576;50.460;4.866;2023-02-08T01:18:19;-2.50;83.49
75899;DHT22;64576;50.460;4.866;2023-02-08T01:20:46;-2.54;84.49
75899;DHT22;64576;50.460;4.866;2023-02-08T01:23:11;-2.57;85.31
75899;DHT22;64576;50.460;4.866;2023-02-08T01:25:37;-2.73;85.69
75899;DHT22;64576;50.460;4.866;2023-02-08T01:28:02;-2.70;86.35
75899;DHT22;64576;50.460;4.866;2023-02-08T01:30:27;-2.68;85.65
75899;DHT22;64576;50.460;4.866;2023-02-08T01:32:53;-2.69;85.00
75899;DHT22;64576;50.460;4.866;2023-02-08T01:35:18;-2.61;81.45
75899;DHT22;64576;50.460;4.866;2023-02-08T01:37:43;-2.31;77.04
75899;DHT22;64576;50.460;4.866;2023-02-08T01:40:09;-2.00;74.67
75899;DHT22;64576;50.460;4.866;2023-02-08T01:42:35;-1.89;74.24
75899;DHT22;64576;50.460;4.866;2023-02-08T01:47:58;-1.85;72.84
75899;DHT22;64576;50.460;4.866;2023-02-08T01:50:29;-2.13;78.76
75899;DHT22;64576;50.460;4.866;2023-02-08T01:52:57;-2.45;84.26
75899;DHT22;64576;50.460;4.866;2023-02-08T01:55:29;-2.73;86.04
75899;DHT22;64576;50.460;4.866;2023-02-08T01:57:58;-2.90;82.94
75899;DHT22;64576;50.460;4.866;2023-02-08T02:00:26;-3.16;83.12
75899;DHT22;64576;50.460;4.866;2023-02-08T02:02:53;-3.47;83.37
75899;DHT22;64576;50.460;4.866;2023-02-08T02:05:26;-3.72;85.46
75899;DHT22;64576;50.460;4.866;2023-02-08T02:07:53;-3.54;88.21
75899;DHT22;64576;50.460;4.866;2023-02-08T02:10:33;-3.34;88.86
75899;DHT22;64576;50.460;4.866;2023-02-08T02:13:07;-3.27;89.32
75899;DHT22;64576;50.460;4.866;2023-02-08T02:15:33;-3.28;89.51
75899;DHT22;64576;50.460;4.866;2023-02-08T02:18:00;-3.23;89.76
75899;DHT22;64576;50.460;4.866;2023-02-08T02:23:40;-3.03;81.88
75899;DHT22;64576;50.460;4.866;2023-02-08T02:31:54;-3.41;78.33
75899;DHT22;64576;50.460;4.866;2023-02-08T02:40:08;-3.73;79.95
75899;DHT22;64576;50.460;4.866;2023-02-08T02:45:43;-4.09;87.85
75899;DHT22;64576;50.460;4.866;2023-02-08T02:48:14;-4.17;89.89
75899;DHT22;64576;50.460;4.866;2023-02-08T02:50:48;-4.34;89.76
75899;DHT22;64576;50.460;4.866;2023-02-08T02:56:20;-4.48;89.94
75899;DHT22;64576;50.460;4.866;2023-02-08T02:58:46;-4.20;92.11
75899;DHT22;64576;50.460;4.866;2023-02-08T03:01:12;-3.87;92.99
75899;DHT22;64576;50.460;4.866;2023-02-08T03:03:39;-3.81;94.15
75899;DHT22;64576;50.460;4.866;2023-02-08T03:06:21;-3.94;93.89
75899;DHT22;64576;50.460;4.866;2023-02-08T03:09:13;-3.97;93.66
75899;DHT22;64576;50.460;4.866;2023-02-08T03:11:48;-3.96;94.10
75899;DHT22;64576;50.460;4.866;2023-02-08T03:28:19;-4.13;90.65
75899;DHT22;64576;50.460;4.866;2023-02-08T03:33:40;-3.93;86.16
75899;DHT22;64576;50.460;4.866;2023-02-08T03:36:19;-3.97;86.98
75899;DHT22;64576;50.460;4.866;2023-02-08T03:38:46;-4.20;87.36
75899;DHT22;64576;50.460;4.866;2023-02-08T03:41:18;-4.38;87.17
75899;DHT22;64576;50.460;4.866;2023-02-08T03:43:50;-4.44;87.30
75899;DHT22;64576;50.460;4.866;2023-02-08T03:46:25;-4.44;87.09
75899;DHT22;64576;50.460;4.866;2023-02-08T03:49:01;-4.37;88.11
75899;DHT22;64576;50.460;4.866;2023-02-08T03:51:29;-4.61;87.84
75899;DHT22;64576;50.460;4.866;2023-02-08T03:53:57;-4.72;89.29
75899;DHT22;64576;50.460;4.866;2023-02-08T03:59:11;-4.15;92.32
75899;DHT22;64576;50.460;4.866;2023-02-08T04:01:44;-4.14;90.71
75899;DHT22;64576;50.460;4.866;2023-02-08T04:04:12;-4.44;91.14
75899;DHT22;64576;50.460;4.866;2023-02-08T04:06:38;-4.68;91.31
75899;DHT22;64576;50.460;4.866;2023-02-08T04:09:03;-4.77;91.97
75899;DHT22;64576;50.460;4.866;2023-02-08T04:11:28;-4.90;92.20
75899;DHT22;64576;50.460;4.866;2023-02-08T04:13:54;-4.64;93.41
75899;DHT22;64576;50.460;4.866;2023-02-08T04:16:19;-4.38;95.86
75899;DHT22;64576;50.460;4.866;2023-02-08T04:18:44;-4.44;95.76
75899;DHT22;64576;50.460;4.866;2023-02-08T04:21:10;-4.28;91.39
75899;DHT22;64576;50.460;4.866;2023-02-08T04:23:35;-4.25;93.90
75899;DHT22;64576;50.460;4.866;2023-02-08T04:26:00;-4.40;94.11
75899;DHT22;64576;50.460;4.866;2023-02-08T04:28:26;-4.14;86.70
75899;DHT22;64576;50.460;4.866;2023-02-08T04:30:54;-4.09;86.19
75899;DHT22;64576;50.460;4.866;2023-02-08T04:33:20;-4.25;86.70
75899;DHT22;64576;50.460;4.866;2023-02-08T04:35:46;-4.35;85.18
75899;DHT22;64576;50.460;4.866;2023-02-08T04:38:11;-4.41;89.13
75899;DHT22;64576;50.460;4.866;2023-02-08T04:40:36;-4.82;91.02
75899;DHT22;64576;50.460;4.866;2023-02-08T04:43:02;-5.07;90.99
75899;DHT22;64576;50.460;4.866;2023-02-08T04:45:27;-5.21;93.19
75899;DHT22;64576;50.460;4.866;2023-02-08T04:47:56;-5.50;92.75
75899;DHT22;64576;50.460;4.866;2023-02-08T04:50:21;-5.54;93.36
75899;DHT22;64576;50.460;4.866;2023-02-08T04:52:47;-5.30;94.80
75899;DHT22;64576;50.460;4.866;2023-02-08T04:55:12;-4.86;93.59
75899;DHT22;64576;50.460;4.866;2023-02-08T04:57:38;-4.76;93.14
75899;DHT22;64576;50.460;4.866;2023-02-08T05:00:03;-4.92;93.19
75899;DHT22;64576;50.460;4.866;2023-02-08T05:02:29;-5.03;93.31
75899;DHT22;64576;50.460;4.866;2023-02-08T05:04:54;-5.24;93.47
75899;DHT22;64576;50.460;4.866;2023-02-08T05:07:20;-5.48;93.76
75899;DHT22;64576;50.460;4.866;2023-02-08T05:09:45;-5.14;95.39
75899;DHT22;64576;50.460;4.866;2023-02-08T05:12:10;-4.69;92.94
75899;DHT22;64576;50.460;4.866;2023-02-08T05:14:36;-4.64;91.87
75899;DHT22;64576;50.460;4.866;2023-02-08T05:17:01;-4.58;91.03
75899;DHT22;64576;50.460;4.866;2023-02-08T05:19:27;-4.75;90.84
75899;DHT22;64576;50.460;4.866;2023-02-08T05:21:52;-4.45;89.40
75899;DHT22;64576;50.460;4.866;2023-02-08T05:24:17;-4.66;89.28
75899;DHT22;64576;50.460;4.866;2023-02-08T05:26:43;-4.56;89.00
75899;DHT22;64576;50.460;4.866;2023-02-08T05:29:08;-4.54;88.36
75899;DHT22;64576;50.460;4.866;2023-02-08T05:31:33;-4.42;88.34
75899;DHT22;64576;50.460;4.866;2023-02-08T05:33:59;-4.65;89.61
75899;DHT22;64576;50.460;4.866;2023-02-08T05:36:25;-4.64;90.42
75899;DHT22;64576;50.460;4.866;2023-02-08T05:38:51;-4.64;90.35
75899;DHT22;64576;50.460;4.866;2023-02-08T05:41:17;-4.10;86.49
75899;DHT22;64576;50.460;4.866;2023-02-08T05:43:43;-3.94;86.10
75899;DHT22;64576;50.460;4.866;2023-02-08T05:46:08;-4.06;86.56
75899;DHT22;64576;50.460;4.866;2023-02-08T05:48:34;-4.22;87.95
75899;DHT22;64576;50.460;4.866;2023-02-08T05:50:59;-4.30;87.88
75899;DHT22;64576;50.460;4.866;2023-02-08T05:53:25;-4.11;85.77
75899;DHT22;64576;50.460;4.866;2023-02-08T05:55:51;-3.90;88.68
75899;DHT22;64576;50.460;4.866;2023-02-08T05:58:16;-4.13;92.74
75899;DHT22;64576;50.460;4.866;2023-02-08T06:00:42;-4.11;92.00
75899;DHT22;64576;50.460;4.866;2023-02-08T06:03:08;-4.09;89.95
75899;DHT22;64576;50.460;4.866;2023-02-08T06:05:36;-4.01;89.32
75899;DHT22;64576;50.460;4.866;2023-02-08T06:08:01;-4.00;89.51
75899;DHT22;64576;50.460;4.866;2023-02-08T06:10:27;-3.99;90.29
75899;DHT22;64576;50.460;4.866;2023-02-08T06:12:52;-4.06;92.86
75899;DHT22;64576;50.460;4.866;2023-02-08T06:15:17;-4.21;94.06
75899;DHT22;64576;50.460;4.866;2023-02-08T06:17:43;-4.25;94.88
75899;DHT22;64576;50.460;4.866;2023-02-08T06:20:08;-4.17;94.67
75899;DHT22;64576;50.460;4.866;2023-02-08T06:22:34;-4.10;94.69
75899;DHT22;64576;50.460;4.866;2023-02-08T06:24:59;-4.09;94.33
75899;DHT22;64576;50.460;4.866;2023-02-08T06:27:25;-4.04;93.69
75899;DHT22;64576;50.460;4.866;2023-02-08T06:29:50;-4.00;92.56
75899;DHT22;64576;50.460;4.866;2023-02-08T06:32:16;-4.00;90.78
75899;DHT22;64576;50.460;4.866;2023-02-08T06:34:41;-4.04;90.33
75899;DHT22;64576;50.460;4.866;2023-02-08T06:37:06;-4.07;91.56
75899;DHT22;64576;50.460;4.866;2023-02-08T06:39:31;-4.20;92.57
75899;DHT22;64576;50.460;4.866;2023-02-08T06:41:57;-4.13;92.48
75899;DHT22;64576;50.460;4.866;2023-02-08T06:44:23;-3.97;91.24
75899;DHT22;64576;50.460;4.866;2023-02-08T06:46:48;-3.85;89.59
75899;DHT22;64576;50.460;4.866;2023-02-08T06:49:14;-3.94;90.51
75899;DHT22;64576;50.460;4.866;2023-02-08T06:51:39;-4.18;91.96
75899;DHT22;64576;50.460;4.866;2023-02-08T06:54:05;-4.30;92.39
75899;DHT22;64576;50.460;4.866;2023-02-08T06:56:30;-4.27;92.88
75899;DHT22;64576;50.460;4.866;2023-02-08T06:58:56;-4.41;93.28
75899;DHT22;64576;50.460;4.866;2023-02-08T07:01:21;-4.49;93.95
75899;DHT22;64576;50.460;4.866;2023-02-08T07:03:47;-4.61;94.51
75899;DHT22;64576;50.460;4.866;2023-02-08T07:06:14;-4.62;94.98
75899;DHT22;64576;50.460;4.866;2023-02-08T07:08:40;-4.62;95.40
75899;DHT22;64576;50.460;4.866;2023-02-08T07:11:11;-4.48;95.11
75899;DHT22;64576;50.460;4.866;2023-02-08T07:13:37;-4.42;94.88
75899;DHT22;64576;50.460;4.866;2023-02-08T07:16:04;-4.35;95.13
75899;DHT22;64576;50.460;4.866;2023-02-08T07:18:30;-4.34;95.12
75899;DHT22;64576;50.460;4.866;2023-02-08T07:20:55;-4.32;94.50
75899;DHT22;64576;50.460;4.866;2023-02-08T07:23:21;-4.24;94.56
75899;DHT22;64576;50.460;4.866;2023-02-08T07:25:56;-4.21;94.27
75899;DHT22;64576;50.460;4.866;2023-02-08T07:28:22;-4.09;93.53
75899;DHT22;64576;50.460;4.866;2023-02-08T07:30:47;-3.85;92.36
75899;DHT22;64576;50.460;4.866;2023-02-08T07:33:13;-3.43;88.52
75899;DHT22;64576;50.460;4.866;2023-02-08T07:35:38;-2.89;87.19
75899;DHT22;64576;50.460;4.866;2023-02-08T07:38:03;-2.31;83.95
75899;DHT22;64576;50.460;4.866;2023-02-08T07:40:29;-1.81;82.54
75899;DHT22;64576;50.460;4.866;2023-02-08T07:42:56;-1.38;82.35
75899;DHT22;64576;50.460;4.866;2023-02-08T07:45:21;-1.19;80.89
75899;DHT22;64576;50.460;4.866;2023-02-08T07:47:47;-1.16;81.37
75899;DHT22;64576;50.460;4.866;2023-02-08T07:50:13;-0.97;80.72
75899;DHT22;64576;50.460;4.866;2023-02-08T07:52:40;-0.83;80.72
75899;DHT22;64576;50.460;4.866;2023-02-08T07:55:07;-0.69;79.44
75899;DHT22;64576;50.460;4.866;2023-02-08T07:57:34;-0.51;79.38
75899;DHT22;64576;50.460;4.866;2023-02-08T07:59:59;-0.27;79.35
75899;DHT22;64576;50.460;4.866;2023-02-08T08:02:24;0.14;78.06
75899;DHT22;64576;50.460;4.866;2023-02-08T08:04:50;0.39;77.18
75899;DHT22;64576;50.460;4.866;2023-02-08T08:07:18;0.39;76.83
75899;DHT22;64576;50.460;4.866;2023-02-08T08:09:43;0.65;75.53
75899;DHT22;64576;50.460;4.866;2023-02-08T08:12:09;0.98;73.78
75899;DHT22;64576;50.460;4.866;2023-02-08T08:14:34;0.70;74.76
75899;DHT22;64576;50.460;4.866;2023-02-08T08:16:59;0.93;75.00
75899;DHT22;64576;50.460;4.866;2023-02-08T08:19:25;0.94;74.16
75899;DHT22;64576;50.460;4.866;2023-02-08T08:21:50;1.24;73.91
75899;DHT22;64576;50.460;4.866;2023-02-08T08:24:15;1.31;73.55
75899;DHT22;64576;50.460;4.866;2023-02-08T08:26:41;1.46;73.17
75899;DHT22;64576;50.460;4.866;2023-02-08T08:29:06;1.51;72.63
75899;DHT22;64576;50.460;4.866;2023-02-08T08:31:31;2.10;70.53
75899;DHT22;64576;50.460;4.866;2023-02-08T08:33:57;2.46;69.88
75899;DHT22;64576;50.460;4.866;2023-02-08T08:36:22;2.82;68.01
75899;DHT22;64576;50.460;4.866;2023-02-08T08:38:47;3.07;66.73
75899;DHT22;64576;50.460;4.866;2023-02-08T08:41:14;3.41;64.14
75899;DHT22;64576;50.460;4.866;2023-02-08T08:43:42;3.69;60.15
75899;DHT22;64576;50.460;4.866;2023-02-08T08:46:08;3.98;61.93
75899;DHT22;64576;50.460;4.866;2023-02-08T08:48:35;4.21;62.34
75899;DHT22;64576;50.460;4.866;2023-02-08T08:51:01;3.94;61.51
75899;DHT22;64576;50.460;4.866;2023-02-08T08:53:26;4.22;62.22
75899;DHT22;64576;50.460;4.866;2023-02-08T08:55:53;4.10;61.52
75899;DHT22;64576;50.460;4.866;2023-02-08T08:58:18;4.84;61.99
75899;DHT22;64576;50.460;4.866;2023-02-08T09:00:43;5.36;59.10
75899;DHT22;64576;50.460;4.866;2023-02-08T09:03:09;5.79;57.01
75899;DHT22;64576;50.460;4.866;2023-02-08T09:05:34;6.00;58.18
75899;DHT22;64576;50.460;4.866;2023-02-08T09:08:00;6.21;55.35
75899;DHT22;64576;50.460;4.866;2023-02-08T09:10:28;6.18;54.01
75899;DHT22;64576;50.460;4.866;2023-02-08T09:12:53;6.03;48.75
75899;DHT22;64576;50.460;4.866;2023-02-08T09:15:18;6.13;52.21
75899;DHT22;64576;50.460;4.866;2023-02-08T09:17:44;6.11;48.52
75899;DHT22;64576;50.460;4.866;2023-02-08T09:20:10;5.73;55.33
75899;DHT22;64576;50.460;4.866;2023-02-08T09:22:35;6.46;51.56
75899;DHT22;64576;50.460;4.866;2023-02-08T09:25:00;6.04;52.07
75899;DHT22;64576;50.460;4.866;2023-02-08T09:27:27;6.61;49.67
75899;DHT22;64576;50.460;4.866;2023-02-08T09:29:53;6.82;48.83
75899;DHT22;64576;50.460;4.866;2023-02-08T09:32:18;7.10;47.08
75899;DHT22;64576;50.460;4.866;2023-02-08T09:34:45;7.18;45.31
75899;DHT22;64576;50.460;4.866;2023-02-08T09:37:10;7.80;48.70
75899;DHT22;64576;50.460;4.866;2023-02-08T09:39:36;8.62;44.23
75899;DHT22;64576;50.460;4.866;2023-02-08T09:45:26;9.21;41.65
75899;DHT22;64576;50.460;4.866;2023-02-08T09:50:36;9.74;40.99
75899;DHT22;64576;50.460;4.866;2023-02-08T09:53:23;8.77;40.43
75899;DHT22;64576;50.460;4.866;2023-02-08T09:56:03;8.62;41.93
75899;DHT22;64576;50.460;4.866;2023-02-08T09:58:43;9.58;40.78
75899;DHT22;64576;50.460;4.866;2023-02-08T10:01:18;9.92;39.23
75899;DHT22;64576;50.460;4.866;2023-02-08T10:03:45;9.76;35.14
75899;DHT22;64576;50.460;4.866;2023-02-08T10:06:17;9.35;36.48
75899;DHT22;64576;50.460;4.866;2023-02-08T10:08:44;9.62;35.82
75899;DHT22;64576;50.460;4.866;2023-02-08T10:14:24;11.72;38.07
75899;DHT22;64576;50.460;4.866;2023-02-08T10:25:35;13.23;33.58
75899;DHT22;64576;50.460;4.866;2023-02-08T10:28:34;13.60;30.85
75899;DHT22;64576;50.460;4.866;2023-02-08T10:36:41;12.87;35.07
75899;DHT22;64576;50.460;4.866;2023-02-08T10:39:28;12.60;31.62
75899;DHT22;64576;50.460;4.866;2023-02-08T10:41:54;13.53;31.54
75899;DHT22;64576;50.460;4.866;2023-02-08T10:44:49;13.57;32.67
75899;DHT22;64576;50.460;4.866;2023-02-08T10:47:16;13.94;31.09
75899;DHT22;64576;50.460;4.866;2023-02-08T10:52:39;13.03;32.93
75899;DHT22;64576;50.460;4.866;2023-02-08T10:55:13;12.23;31.59
75899;DHT22;64576;50.460;4.866;2023-02-08T10:57:39;11.71;31.96
75899;DHT22;64576;50.460;4.866;2023-02-08T11:00:23;13.48;31.70
75899;DHT22;64576;50.460;4.866;2023-02-08T11:02:50;13.57;30.85
75899;DHT22;64576;50.460;4.866;2023-02-08T11:05:19;12.89;29.32
75899;DHT22;64576;50.460;4.866;2023-02-08T11:07:45;12.71;32.75
75899;DHT22;64576;50.460;4.866;2023-02-08T11:12:58;14.16;32.08
75899;DHT22;64576;50.460;4.866;2023-02-08T11:15:28;13.64;30.75
75899;DHT22;64576;50.460;4.866;2023-02-08T11:17:58;13.82;32.09
75899;DHT22;64576;50.460;4.866;2023-02-08T11:20:32;13.81;27.72
75899;DHT22;64576;50.460;4.866;2023-02-08T11:23:01;13.81;32.31
75899;DHT22;64576;50.460;4.866;2023-02-08T11:25:33;13.05;31.99
75899;DHT22;64576;50.460;4.866;2023-02-08T11:27:59;12.60;33.48
75899;DHT22;64576;50.460;4.866;2023-02-08T11:30:25;12.75;35.62
75899;DHT22;64576;50.460;4.866;2023-02-08T11:33:15;12.48;32.89
75899;DHT22;64576;50.460;4.866;2023-02-08T11:35:48;12.38;35.56
75899;DHT22;64576;50.460;4.866;2023-02-08T11:38:18;12.29;33.39
75899;DHT22;64576;50.460;4.866;2023-02-08T11:40:44;12.26;31.15
75899;DHT22;64576;50.460;4.866;2023-02-08T11:43:25;10.92;30.81
75899;DHT22;64576;50.460;4.866;2023-02-08T11:45:53;11.37;33.80
75899;DHT22;64576;50.460;4.866;2023-02-08T11:48:44;10.73;32.41
75899;DHT22;64576;50.460;4.866;2023-02-08T11:51:13;10.64;32.39
75899;DHT22;64576;50.460;4.866;2023-02-08T11:53:40;11.38;32.05
75899;DHT22;64576;50.460;4.866;2023-02-08T11:59:03;11.19;28.75
75899;DHT22;64576;50.460;4.866;2023-02-08T12:01:36;11.64;33.20
75899;DHT22;64576;50.460;4.866;2023-02-08T12:04:04;12.15;30.98
75899;DHT22;64576;50.460;4.866;2023-02-08T12:06:48;12.65;31.58
75899;DHT22;64576;50.460;4.866;2023-02-08T12:12:28;13.55;27.16
75899;DHT22;64576;50.460;4.866;2023-02-08T12:25:56;13.26;25.77
75899;DHT22;64576;50.460;4.866;2023-02-08T12:36:49;14.78;21.88
75899;DHT22;64576;50.460;4.866;2023-02-08T12:40:02;13.89;20.99
75899;DHT22;64576;50.460;4.866;2023-02-08T12:43:15;13.43;21.53
75899;DHT22;64576;50.460;4.866;2023-02-08T12:46:05;12.19;22.66
75899;DHT22;64576;50.460;4.866;2023-02-08T12:54:47;13.57;22.19
75899;DHT22;64576;50.460;4.866;2023-02-08T12:57:17;13.68;22.55
75899;DHT22;64576;50.460;4.866;2023-02-08T12:59:51;12.85;23.40
75899;DHT22;64576;50.460;4.866;2023-02-08T13:04:46;14.18;23.03
75899;DHT22;64576;50.460;4.866;2023-02-08T13:07:17;14.84;23.73
75899;DHT22;64576;50.460;4.866;2023-02-08T13:09:56;15.01;22.00
75899;DHT22;64576;50.460;4.866;2023-02-08T13:12:26;15.04;21.59
75899;DHT22;64576;50.460;4.866;2023-02-08T13:15:03;12.87;21.40
75899;DHT22;64576;50.460;4.866;2023-02-08T13:17:42;12.93;22.10
75899;DHT22;64576;50.460;4.866;2023-02-08T13:20:26;13.44;23.18
75899;DHT22;64576;50.460;4.866;2023-02-08T13:22:55;13.98;23.85
75899;DHT22;64576;50.460;4.866;2023-02-08T13:25:28;13.65;22.89
75899;DHT22;64576;50.460;4.866;2023-02-08T13:27:59;13.65;22.49
75899;DHT22;64576;50.460;4.866;2023-02-08T13:30:24;13.82;21.77
75899;DHT22;64576;50.460;4.866;2023-02-08T13:32:51;13.10;22.73
75899;DHT22;64576;50.460;4.866;2023-02-08T13:35:22;14.39;21.77
75899;DHT22;64576;50.460;4.866;2023-02-08T13:37:55;14.75;21.72
75899;DHT22;64576;50.460;4.866;2023-02-08T13:40:27;14.87;20.88
75899;DHT22;64576;50.460;4.866;2023-02-08T13:43:05;14.80;20.85
75899;DHT22;64576;50.460;4.866;2023-02-08T13:45:43;15.02;21.15
75899;DHT22;64576;50.460;4.866;2023-02-08T13:48:15;14.60;24.66
75899;DHT22;64576;50.460;4.866;2023-02-08T13:50:43;15.77;23.69
75899;DHT22;64576;50.460;4.866;2023-02-08T13:53:09;14.41;23.67
75899;DHT22;64576;50.460;4.866;2023-02-08T13:55:42;13.47;25.35
75899;DHT22;64576;50.460;4.866;2023-02-08T14:03:29;12.91;25.26
75899;DHT22;64576;50.460;4.866;2023-02-08T14:05:56;12.41;24.96
75899;DHT22;64576;50.460;4.866;2023-02-08T14:08:43;13.08;25.65
75899;DHT22;64576;50.460;4.866;2023-02-08T14:13:54;11.81;26.85
75899;DHT22;64576;50.460;4.866;2023-02-08T14:16:37;11.85;26.79
75899;DHT22;64576;50.460;4.866;2023-02-08T14:22:05;11.68;26.53
75899;DHT22;64576;50.460;4.866;2023-02-08T14:24:35;11.95;27.09
75899;DHT22;64576;50.460;4.866;2023-02-08T14:27:07;11.34;28.53
75899;DHT22;64576;50.460;4.866;2023-02-08T14:29:33;11.90;27.69
75899;DHT22;64576;50.460;4.866;2023-02-08T14:31:59;12.98;27.58
75899;DHT22;64576;50.460;4.866;2023-02-08T14:34:28;11.99;27.06
75899;DHT22;64576;50.460;4.866;2023-02-08T14:37:24;12.78;25.71
75899;DHT22;64576;50.460;4.866;2023-02-08T14:43:42;14.11;24.70
75899;DHT22;64576;50.460;4.866;2023-02-08T14:45:50;12.78;25.86
75899;DHT22;64576;50.460;4.866;2023-02-08T14:48:34;12.53;25.74
75899;DHT22;64576;50.460;4.866;2023-02-08T14:56:18;13.70;23.99
75899;DHT22;64576;50.460;4.866;2023-02-08T14:58:49;12.71;24.11
75899;DHT22;64576;50.460;4.866;2023-02-08T15:01:20;13.12;23.90
75899;DHT22;64576;50.460;4.866;2023-02-08T15:03:51;13.20;25.79
75899;DHT22;64576;50.460;4.866;2023-02-08T15:08:53;10.95;26.92
75899;DHT22;64576;50.460;4.866;2023-02-08T15:11:25;9.31;30.12
75899;DHT22;64576;50.460;4.866;2023-02-08T15:13:54;8.54;33.08
75899;DHT22;64576;50.460;4.866;2023-02-08T15:16:20;7.65;33.38
75899;DHT22;64576;50.460;4.866;2023-02-08T15:18:49;7.25;32.44
75899;DHT22;64576;50.460;4.866;2023-02-08T15:21:17;7.03;33.13
75899;DHT22;64576;50.460;4.866;2023-02-08T15:26:22;6.73;33.45
75899;DHT22;64576;50.460;4.866;2023-02-08T15:28:48;6.61;33.67
75899;DHT22;64576;50.460;4.866;2023-02-08T15:31:16;6.46;34.44
75899;DHT22;64576;50.460;4.866;2023-02-08T15:33:42;6.42;34.63
75899;DHT22;64576;50.460;4.866;2023-02-08T15:36:25;6.35;34.44
75899;DHT22;64576;50.460;4.866;2023-02-08T15:38:53;6.25;35.33
75899;DHT22;64576;50.460;4.866;2023-02-08T15:41:31;6.16;35.53
75899;DHT22;64576;50.460;4.866;2023-02-08T15:44:17;6.01;35.20
75899;DHT22;64576;50.460;4.866;2023-02-08T15:46:45;5.87;35.53
75899;DHT22;64576;50.460;4.866;2023-02-08T15:49:14;5.79;36.79
75899;DHT22;64576;50.460;4.866;2023-02-08T15:51:41;5.80;35.01
75899;DHT22;64576;50.460;4.866;2023-02-08T15:54:14;5.85;34.37
75899;DHT22;64576;50.460;4.866;2023-02-08T15:56:48;5.90;34.95
75899;DHT22;64576;50.460;4.866;2023-02-08T15:59:19;5.87;36.30
75899;DHT22;64576;50.460;4.866;2023-02-08T16:01:46;5.72;35.69
75899;DHT22;64576;50.460;4.866;2023-02-08T16:04:12;5.72;35.71
75899;DHT22;64576;50.460;4.866;2023-02-08T16:06:48;5.58;35.92
75899;DHT22;64576;50.460;4.866;2023-02-08T16:09:18;5.52;36.53
75899;DHT22;64576;50.460;4.866;2023-02-08T16:11:46;5.42;36.02
75899;DHT22;64576;50.460;4.866;2023-02-08T16:14:15;5.27;37.76
75899;DHT22;64576;50.460;4.866;2023-02-08T16:16:45;5.08;37.25
75899;DHT22;64576;50.460;4.866;2023-02-08T16:21:43;4.81;41.38
75899;DHT22;64576;50.460;4.866;2023-02-08T16:26:49;4.51;47.48
75899;DHT22;64576;50.460;4.866;2023-02-08T16:29:27;4.27;49.02
75899;DHT22;64576;50.460;4.866;2023-02-08T16:32:02;4.13;49.91
75899;DHT22;64576;50.460;4.866;2023-02-08T16:34:30;3.96;50.34
75899;DHT22;64576;50.460;4.866;2023-02-08T16:36:56;3.73;52.12
75899;DHT22;64576;50.460;4.866;2023-02-08T16:39:34;3.68;52.33
75899;DHT22;64576;50.460;4.866;2023-02-08T16:42:06;3.58;52.41
75899;DHT22;64576;50.460;4.866;2023-02-08T16:44:58;3.28;54.18
75899;DHT22;64576;50.460;4.866;2023-02-08T16:50:24;2.80;56.46
75899;DHT22;64576;50.460;4.866;2023-02-08T16:52:55;3.10;55.39
75899;DHT22;64576;50.460;4.866;2023-02-08T16:55:25;2.97;55.62
75899;DHT22;64576;50.460;4.866;2023-02-08T16:57:53;2.99;55.56
75899;DHT22;64576;50.460;4.866;2023-02-08T17:02:44;3.07;55.70
75899;DHT22;64576;50.460;4.866;2023-02-08T17:05:10;2.92;56.13
75899;DHT22;64576;50.460;4.866;2023-02-08T17:07:35;2.84;55.70
75899;DHT22;64576;50.460;4.866;2023-02-08T17:10:03;2.87;56.23
75899;DHT22;64576;50.460;4.866;2023-02-08T17:12:28;2.79;56.15
75899;DHT22;64576;50.460;4.866;2023-02-08T17:14:54;2.73;56.79
75899;DHT22;64576;50.460;4.866;2023-02-08T17:17:20;2.66;56.86
75899;DHT22;64576;50.460;4.866;2023-02-08T17:19:45;2.38;57.87
75899;DHT22;64576;50.460;4.866;2023-02-08T17:22:11;2.39;57.88
75899;DHT22;64576;50.460;4.866;2023-02-08T17:24:36;2.45;57.67
75899;DHT22;64576;50.460;4.866;2023-02-08T17:27:03;2.36;57.81
75899;DHT22;64576;50.460;4.866;2023-02-08T17:29:29;2.10;58.78
75899;DHT22;64576;50.460;4.866;2023-02-08T17:31:54;2.20;58.37
75899;DHT22;64576;50.460;4.866;2023-02-08T17:34:19;2.62;56.68
75899;DHT22;64576;50.460;4.866;2023-02-08T17:36:45;2.80;56.05
75899;DHT22;64576;50.460;4.866;2023-02-08T17:39:10;2.71;57.18
75899;DHT22;64576;50.460;4.866;2023-02-08T17:41:38;2.69;56.63
75899;DHT22;64576;50.460;4.866;2023-02-08T17:44:04;2.59;56.87
75899;DHT22;64576;50.460;4.866;2023-02-08T17:46:30;2.45;57.20
75899;DHT22;64576;50.460;4.866;2023-02-08T17:48:56;2.39;57.83
75899;DHT22;64576;50.460;4.866;2023-02-08T17:51:26;2.36;58.00
75899;DHT22;64576;50.460;4.866;2023-02-08T17:53:51;2.36;57.97
75899;DHT22;64576;50.460;4.866;2023-02-08T17:56:22;2.45;57.21
75899;DHT22;64576;50.460;4.866;2023-02-08T17:58:49;2.36;57.07
75899;DHT22;64576;50.460;4.866;2023-02-08T18:01:19;2.24;58.48
75899;DHT22;64576;50.460;4.866;2023-02-08T18:03:46;2.07;59.25
75899;DHT22;64576;50.460;4.866;2023-02-08T18:06:12;1.99;59.89
75899;DHT22;64576;50.460;4.866;2023-02-08T18:08:38;1.99;58.88